CDT,Max TemperatureF,Mean TemperatureF,Min TemperatureF,Max Dew PointF,MeanDew PointF,Min DewpointF,Max Humidity, Mean Humidity, Min Humidity, Max Sea Level PressureIn, Mean Sea Level PressureIn, Min Sea Level PressureIn, Max VisibilityMiles, Mean VisibilityMiles, Min VisibilityMiles, Max Wind SpeedMPH, Mean Wind SpeedMPH, Max Gust SpeedMPH,PrecipitationIn, CloudCover, Events, WindDirDegrees
2012-10-1,66,49,32,46,36,28,93,65,30,29.94,29.86,29.80,10,9,0,12,2,18,0.00,1,Fog,339
2012-10-2,59,42,26,43,35,23,93,73,48,29.97,29.91,29.85,10,10,10,12,2,16,0.00,0,,94
2012-10-3,71,50,28,45,32,21,93,61,15,29.92,29.89,29.86,10,10,10,12,1,,0.00,0,,156
2012-10-4,53,44,35,46,34,23,93,65,46,29.90,29.77,29.67,10,10,2,23,8,37,0.00,3,,244
2012-10-5,41,36,32,28,25,21,87,63,52,29.99,29.85,29.79,10,10,4,16,10,31,0.00,2,Rain-Snow,275
2012-10-6,44,36,28,28,21,12,87,59,27,30.18,30.11,29.99,10,10,7,10,3,18,0.00,5,Snow,333
2012-10-7,51,38,26,21,16,7,74,44,19,30.11,29.94,29.81,10,10,10,13,4,24,0.00,1,,252
2012-10-8,44,36,28,39,24,12,93,61,37,29.80,29.66,29.54,10,10,7,10,3,,0.10,3,Rain,200
2012-10-9,48,39,30,36,30,23,87,70,40,29.81,29.65,29.57,10,10,7,12,5,22,0.01,2,Rain,278
2012-10-10,44,35,26,28,21,16,86,59,34,29.95,29.90,29.82,10,10,10,13,3,18,0.00,4,,277
2012-10-11,42,35,28,30,26,21,87,69,42,30.28,30.03,29.85,10,10,4,13,3,22,0.01,2,Rain,307
2012-10-12,44,32,19,28,21,12,93,64,31,30.39,30.27,30.04,10,10,10,12,3,18,0.00,2,,110
2012-10-13,42,40,37,37,33,21,93,77,49,30.03,29.82,29.71,10,8,2,6,1,,0.00,7,Rain,157
2012-10-14,50,39,28,36,29,25,93,73,37,29.82,29.79,29.75,10,9,2,9,2,,0.00,1,,36
2012-10-15,48,36,23,34,28,19,93,69,40,29.90,29.85,29.76,10,10,10,8,3,,0.00,2,Rain,89
2012-10-16,60,48,35,43,38,30,93,76,45,29.76,29.53,29.42,10,10,5,9,4,,0.02,3,Rain,130
2012-10-17,48,40,33,45,41,32,93,88,87,29.41,29.26,29.16,10,6,3,15,5,25,0.00,3,Rain,58
2012-10-18,51,46,42,45,43,39,93,85,71,29.41,29.21,29.08,10,7,0,13,2,16,0.62,5,Rain,216
2012-10-19,51,42,32,43,38,28,93,81,54,29.71,29.60,29.42,10,8,0,12,5,17,0.05,4,Fog-Rain,75
2012-10-20,53,40,26,39,30,25,93,76,44,29.80,29.75,29.70,10,10,4,8,1,,0.00,0,,177
2012-10-21,53,38,24,41,33,21,93,80,54,29.95,29.87,29.81,10,8,0,7,0,,0.00,2,Fog-Rain,82
2012-10-22,53,45,37,43,38,36,93,75,54,30.08,30.03,29.93,10,10,10,13,5,23,0.00,1,,58
2012-10-23,46,44,42,45,41,39,93,88,81,30.03,29.86,29.76,10,4,1,21,14,32,0.25,8,Rain-Thunderstorm,66
2012-10-24,57,52,46,50,46,43,94,87,72,29.86,29.79,29.75,10,6,0,12,1,17,0.47,6,Fog-Rain-Thunderstorm,359
2012-10-25,46,38,30,41,32,25,87,80,70,29.89,29.72,29.62,10,9,2,16,8,26,0.23,5,Rain,322
2012-10-26,37,30,24,27,21,16,86,62,44,30.23,30.12,29.90,10,10,7,13,7,23,0.00,4,,265
2012-10-27,39,29,19,21,16,12,93,61,36,30.30,30.26,30.23,10,10,10,8,1,,0.00,5,,270
2012-10-28,39,30,21,25,21,16,93,70,49,30.32,30.30,30.28,10,10,10,10,1,16,0.00,6,,222
2012-10-29,44,34,23,32,24,19,93,76,39,30.35,30.32,30.29,10,9,7,8,1,,0.00,2,,81
2012-10-30,42,30,19,25,15,1,93,60,21,30.28,30.19,30.04,10,10,10,14,2,20,0.00,0,,48
2012-10-31,48,32,17,18,6,-15,86,41,7,30.04,29.94,29.86,10,10,10,7,2,,0.00,2,,353